createdAt,value
2023-03-02T00:01:36.249Z,33.95
2023-03-02T00:04:05.635Z,32.15
2023-03-02T00:06:34.718Z,35.33
2023-03-02T00:09:02.369Z,29.65
2023-03-02T00:11:30.561Z,34.95
2023-03-02T00:13:57.770Z,34.13
2023-03-02T00:16:24.752Z,40.80
2023-03-02T00:18:51.778Z,33.88
2023-03-02T00:21:18.529Z,39.80
2023-03-02T00:23:45.449Z,35.42
2023-03-02T00:26:12.299Z,39.65
2023-03-02T00:28:39.061Z,37.15
2023-03-02T00:31:06.557Z,37.13
2023-03-02T00:33:33.777Z,34.22
2023-03-02T00:36:01.127Z,40.38
2023-03-02T00:38:28.621Z,32.17
2023-03-02T00:40:56.347Z,41.50
2023-03-02T00:43:27.271Z,40.60
2023-03-02T00:45:55.263Z,35.78
2023-03-02T00:48:22.366Z,43.28
2023-03-02T00:50:49.126Z,31.02
2023-03-02T00:53:16.139Z,35.53
2023-03-02T00:55:42.917Z,38.13
2023-03-02T00:58:09.600Z,29.38
2023-03-02T01:00:37.394Z,39.13
2023-03-02T01:03:04.615Z,43.47
2023-03-02T01:05:31.452Z,31.15
2023-03-02T01:07:58.147Z,32.83
2023-03-02T01:10:24.901Z,30.08
2023-03-02T01:12:51.665Z,33.35
2023-03-02T01:15:18.469Z,35.97
2023-03-02T01:17:46.737Z,34.55
2023-03-02T01:20:14.480Z,46.92
2023-03-02T01:22:42.233Z,35.67
2023-03-02T01:25:09.674Z,35.25
2023-03-02T01:27:36.771Z,34.90
2023-03-02T01:30:03.976Z,35.63
2023-03-02T01:32:30.789Z,38.65
2023-03-02T01:34:59.784Z,36.47
2023-03-02T01:37:26.562Z,35.35
2023-03-02T01:39:53.477Z,36.53
2023-03-02T01:42:20.280Z,37.63
2023-03-02T01:44:49.467Z,33.63
2023-03-02T01:47:38.789Z,32.92
2023-03-02T01:50:12.261Z,39.17
2023-03-02T01:52:39.319Z,35.28
2023-03-02T01:55:10.143Z,37.78
2023-03-02T01:57:43.774Z,42.72
2023-03-02T02:00:19.439Z,33.15
2023-03-02T02:02:47.032Z,36.55
2023-03-02T02:05:19.560Z,33.28
2023-03-02T02:07:46.430Z,34.90
2023-03-02T02:10:14.618Z,30.42
2023-03-02T02:12:41.488Z,30.83
2023-03-02T02:15:08.950Z,37.90
2023-03-02T02:17:35.853Z,36.17
2023-03-02T02:20:37.147Z,36.67
2023-03-02T02:23:27.767Z,37.80
2023-03-02T02:25:59.769Z,35.50
2023-03-02T02:28:35.687Z,34.65
2023-03-02T02:31:22.479Z,36.85
2023-03-02T02:33:58.435Z,32.88
2023-03-02T02:36:34.122Z,36.42
2023-03-02T02:39:04.823Z,30.15
2023-03-02T02:41:36.764Z,28.88
2023-03-02T02:44:04.308Z,32.22
2023-03-02T02:46:32.970Z,31.52
2023-03-02T02:49:03.373Z,31.52
2023-03-02T02:51:30.401Z,32.78
2023-03-02T02:54:00.271Z,34.95
2023-03-02T02:56:33.633Z,38.80
2023-03-02T02:59:13.700Z,33.35
2023-03-02T03:01:40.579Z,32.97
2023-03-02T03:04:07.514Z,31.92
2023-03-02T03:06:42.065Z,36.28
2023-03-02T03:09:10.757Z,35.92
2023-03-02T03:11:42.079Z,31.95
2023-03-02T03:14:15.486Z,33.38
2023-03-02T03:16:45.010Z,30.67
2023-03-02T03:19:33.918Z,30.83
2023-03-02T03:22:02.125Z,29.55
2023-03-02T03:24:30.692Z,32.00
2023-03-02T03:26:58.708Z,24.77
2023-03-02T03:29:27.545Z,31.98
2023-03-02T03:31:57.332Z,30.98
2023-03-02T03:34:24.531Z,29.33
2023-03-02T03:36:51.271Z,25.92
2023-03-02T03:39:19.223Z,34.05
2023-03-02T03:41:46.364Z,33.05
2023-03-02T03:44:13.055Z,33.03
2023-03-02T03:46:40.032Z,32.10
2023-03-02T03:49:06.856Z,30.33
2023-03-02T03:51:35.292Z,27.48
2023-03-02T03:54:04.095Z,30.98
2023-03-02T03:56:34.157Z,26.75
2023-03-02T03:59:08.210Z,34.72
2023-03-02T04:01:41.167Z,38.40
2023-03-02T04:04:12.951Z,31.17
2023-03-02T04:06:40.231Z,31.30
2023-03-02T04:09:07.894Z,29.52
2023-03-02T04:11:37.823Z,35.38
2023-03-02T04:14:05.675Z,34.38
2023-03-02T04:16:33.225Z,37.05
2023-03-02T04:19:01.021Z,34.53
2023-03-02T04:21:28.108Z,33.38
2023-03-02T04:23:55.227Z,36.75
2023-03-02T04:26:22.035Z,30.10
2023-03-02T04:28:50.932Z,32.95
2023-03-02T04:31:18.297Z,28.75
2023-03-02T04:33:45.251Z,35.03
2023-03-02T04:36:12.099Z,32.03
2023-03-02T04:38:39.252Z,28.83
2023-03-02T04:41:06.133Z,31.20
2023-03-02T04:43:32.914Z,34.92
2023-03-02T04:45:59.728Z,44.65
2023-03-02T04:48:26.596Z,32.80
2023-03-02T04:50:53.328Z,36.90
2023-03-02T04:53:20.108Z,29.65
2023-03-02T04:55:47.413Z,31.42
2023-03-02T04:58:14.998Z,34.08
2023-03-02T05:00:41.884Z,35.67
2023-03-02T05:03:08.676Z,32.67
2023-03-02T05:05:35.565Z,29.30
2023-03-02T05:08:02.327Z,34.40
2023-03-02T05:10:29.457Z,31.20
2023-03-02T05:13:02.472Z,33.88
2023-03-02T05:15:33.779Z,32.20
2023-03-02T05:18:00.750Z,32.90
2023-03-02T05:20:30.220Z,30.55
2023-03-02T05:23:00.057Z,29.95
2023-03-02T05:25:28.705Z,34.97
2023-03-02T05:27:55.664Z,27.23
2023-03-02T05:30:23.116Z,32.20
2023-03-02T05:32:51.878Z,34.35
2023-03-02T05:35:19.838Z,32.42
2023-03-02T05:37:46.636Z,31.75
2023-03-02T05:40:17.339Z,26.45
2023-03-02T05:42:45.069Z,30.13
2023-03-02T05:45:32.149Z,30.17
2023-03-02T05:47:58.928Z,29.63
2023-03-02T05:50:25.694Z,32.53
2023-03-02T05:52:52.552Z,32.53
2023-03-02T05:55:20.276Z,35.47
2023-03-02T05:57:49.297Z,31.95
2023-03-02T06:00:17.383Z,36.25
2023-03-02T06:02:44.348Z,35.25
2023-03-02T06:05:14.041Z,32.50
2023-03-02T06:07:41.166Z,35.25
2023-03-02T06:10:09.726Z,37.88
2023-03-02T06:12:36.631Z,41.95
2023-03-02T06:15:05.200Z,35.85
2023-03-02T06:17:32.139Z,49.72
2023-03-02T06:19:58.980Z,31.20
2023-03-02T06:22:25.732Z,28.55
2023-03-02T06:24:55.069Z,36.63
2023-03-02T06:27:21.927Z,40.83
2023-03-02T06:29:49.087Z,33.60
2023-03-02T06:32:15.911Z,40.92
2023-03-02T06:34:42.755Z,39.03
2023-03-02T06:37:09.556Z,38.60
2023-03-02T06:39:36.270Z,33.45
2023-03-02T06:42:02.990Z,41.55
2023-03-02T06:44:29.778Z,32.63
2023-03-02T06:46:56.635Z,34.92
2023-03-02T06:49:24.373Z,35.75
2023-03-02T06:51:51.194Z,37.40
2023-03-02T06:54:17.947Z,33.13
2023-03-02T06:56:44.748Z,33.45
2023-03-02T06:59:11.516Z,32.30
2023-03-02T07:01:38.365Z,32.90
2023-03-02T07:04:05.584Z,28.63
2023-03-02T07:06:32.599Z,31.25
2023-03-02T07:09:00.006Z,32.10
2023-03-02T07:11:34.762Z,36.00
2023-03-02T07:14:02.096Z,30.52
2023-03-02T07:16:30.501Z,35.55
2023-03-02T07:19:01.029Z,28.30
2023-03-02T07:21:31.227Z,28.73
2023-03-02T07:23:58.614Z,31.38
2023-03-02T07:26:26.025Z,25.92
2023-03-02T07:28:53.379Z,27.38
2023-03-02T07:31:25.846Z,33.20
2023-03-02T07:33:58.078Z,37.80
2023-03-02T07:36:26.469Z,28.67
2023-03-02T07:38:53.472Z,25.88
2023-03-02T07:41:20.582Z,23.88
2023-03-02T07:43:53.604Z,29.30
2023-03-02T07:46:23.950Z,26.10
2023-03-02T07:49:00.009Z,28.27
2023-03-02T07:51:28.895Z,27.27
2023-03-02T07:53:55.798Z,24.42
2023-03-02T07:56:28.309Z,29.55
2023-03-02T07:58:55.899Z,35.30
2023-03-02T08:01:23.568Z,27.73
2023-03-02T08:03:54.094Z,26.77
2023-03-02T08:06:21.236Z,30.95
2023-03-02T08:08:48.326Z,29.98
2023-03-02T08:11:17.769Z,26.33
2023-03-02T08:13:45.494Z,34.88
2023-03-02T08:16:14.972Z,23.23
2023-03-02T08:18:43.223Z,24.40
2023-03-02T08:21:22.917Z,28.20
2023-03-02T08:23:50.775Z,25.08
2023-03-02T08:26:24.921Z,26.95
2023-03-02T08:28:58.245Z,22.15
2023-03-02T08:31:30.485Z,26.65
2023-03-02T08:34:00.604Z,22.98
2023-03-02T08:36:27.805Z,27.17
2023-03-02T08:39:01.237Z,26.73
2023-03-02T08:41:31.574Z,24.90
2023-03-02T08:44:00.789Z,24.50
2023-03-02T08:46:30.380Z,33.28
2023-03-02T08:49:01.032Z,25.58
2023-03-02T08:51:29.225Z,25.38
2023-03-02T08:54:01.986Z,19.25
2023-03-02T08:56:38.272Z,22.73
2023-03-02T08:59:11.915Z,23.40
2023-03-02T09:01:43.086Z,21.52
2023-03-02T09:04:11.788Z,22.07
2023-03-02T09:06:43.699Z,21.13
2023-03-02T09:09:12.712Z,22.13
2023-03-02T09:11:42.146Z,25.63
2023-03-02T09:14:09.890Z,26.77
2023-03-02T09:16:37.312Z,24.10
2023-03-02T09:19:10.097Z,20.30
2023-03-02T09:21:36.851Z,17.50
2023-03-02T09:24:03.772Z,20.20
2023-03-02T09:26:30.990Z,17.20
2023-03-02T09:28:57.911Z,20.90
2023-03-02T09:31:31.266Z,16.47
2023-03-02T09:33:59.008Z,15.07
2023-03-02T09:36:26.834Z,16.10
2023-03-02T09:38:54.826Z,19.43
2023-03-02T09:41:21.880Z,19.63
2023-03-02T09:44:26.198Z,20.17
2023-03-02T09:47:00.674Z,23.33
2023-03-02T09:49:57.863Z,19.63
2023-03-02T09:53:15.622Z,17.60
2023-03-02T09:55:42.683Z,20.90
2023-03-02T09:58:17.389Z,17.07
2023-03-02T10:00:45.295Z,18.40
2023-03-02T10:03:26.902Z,17.97
2023-03-02T10:05:55.251Z,21.00
2023-03-02T10:08:28.637Z,21.93
2023-03-02T10:11:11.365Z,18.23
2023-03-02T10:13:47.843Z,17.20
2023-03-02T10:16:38.755Z,16.50
2023-03-02T10:19:25.924Z,21.63
2023-03-02T10:22:24.306Z,24.40
2023-03-02T10:25:04.232Z,19.70
2023-03-02T10:27:40.769Z,17.60
2023-03-02T10:30:10.451Z,21.13
2023-03-02T10:32:47.813Z,15.90
2023-03-02T10:35:19.222Z,14.90
2023-03-02T10:37:46.365Z,14.77
2023-03-02T10:40:31.280Z,17.50
2023-03-02T10:42:58.371Z,14.17
2023-03-02T10:45:32.866Z,23.83
2023-03-02T10:48:06.553Z,14.13
2023-03-02T10:50:33.545Z,17.53
2023-03-02T10:53:02.018Z,17.30
2023-03-02T10:55:29.626Z,22.23
2023-03-02T10:58:02.562Z,16.70
2023-03-02T11:00:31.342Z,14.20
2023-03-02T11:03:04.089Z,14.20
2023-03-02T11:05:36.584Z,17.63
2023-03-02T11:08:09.977Z,15.53
2023-03-02T11:10:50.387Z,23.20
2023-03-02T11:13:31.050Z,18.20
2023-03-02T11:16:03.687Z,25.40
2023-03-02T11:18:52.545Z,20.40
2023-03-02T11:21:25.688Z,16.10
2023-03-02T11:24:11.405Z,16.07
2023-03-02T11:27:06.167Z,17.87
2023-03-02T11:29:49.960Z,16.07
2023-03-02T11:32:36.885Z,14.43
2023-03-02T11:35:23.051Z,16.60
2023-03-02T11:37:57.270Z,14.73
2023-03-02T11:40:47.070Z,17.40
2023-03-02T11:43:14.287Z,13.27
2023-03-02T11:45:46.908Z,11.77
2023-03-02T11:48:48.876Z,19.87
2023-03-02T11:51:29.988Z,17.40
2023-03-02T11:54:04.620Z,12.33
2023-03-02T11:56:36.761Z,18.60
2023-03-02T11:59:14.873Z,15.87
2023-03-02T12:01:45.177Z,15.33
2023-03-02T12:04:37.675Z,14.73
2023-03-02T12:07:18.510Z,23.97
2023-03-02T12:09:56.024Z,13.77
2023-03-02T12:12:22.716Z,18.77
2023-03-02T12:14:49.500Z,12.87
2023-03-02T12:17:24.981Z,13.10
2023-03-02T12:20:20.829Z,14.30
2023-03-02T12:22:47.682Z,14.00
2023-03-02T12:25:20.339Z,22.50
2023-03-02T12:27:49.848Z,14.50
2023-03-02T12:30:23.625Z,11.23
2023-03-02T12:33:19.196Z,11.20
2023-03-02T12:35:47.546Z,14.33
2023-03-02T12:38:33.934Z,11.57
2023-03-02T12:41:17.496Z,12.60
2023-03-02T12:43:55.942Z,11.50
2023-03-02T12:46:27.540Z,11.83
2023-03-02T12:49:21.642Z,16.83
2023-03-02T12:52:01.171Z,11.70
2023-03-02T12:54:33.302Z,12.37
2023-03-02T12:57:15.299Z,16.90
2023-03-02T12:59:42.919Z,11.07
2023-03-02T13:02:21.915Z,17.33
2023-03-02T13:05:00.796Z,16.20
2023-03-02T13:07:39.658Z,14.67
2023-03-02T13:10:20.241Z,11.43
2023-03-02T13:12:47.408Z,9.73
2023-03-02T13:15:17.060Z,13.13
2023-03-02T13:17:45.134Z,13.50
2023-03-02T13:20:14.635Z,10.90
2023-03-02T13:22:41.736Z,12.20
2023-03-02T13:25:22.569Z,9.30
2023-03-02T13:27:58.158Z,9.53
2023-03-02T13:30:32.554Z,16.97
2023-03-02T13:33:06.326Z,10.50
2023-03-02T13:35:36.042Z,12.20
2023-03-02T13:38:14.453Z,11.90
2023-03-02T13:40:48.332Z,11.93
2023-03-02T13:43:41.067Z,9.23
2023-03-02T13:46:14.119Z,12.50
2023-03-02T13:48:40.814Z,11.73
2023-03-02T13:51:17.969Z,10.43
2023-03-02T13:53:53.229Z,15.93
2023-03-02T13:56:24.640Z,13.97
2023-03-02T13:58:51.446Z,22.53
2023-03-02T14:01:18.479Z,13.30
2023-03-02T14:03:45.466Z,14.33
2023-03-02T14:06:12.366Z,13.07
2023-03-02T14:08:39.150Z,11.47
2023-03-02T14:11:06.493Z,20.67
2023-03-02T14:13:40.760Z,14.10
2023-03-02T14:16:10.873Z,15.30
2023-03-02T14:18:41.606Z,15.07
2023-03-02T14:21:26.931Z,15.33
2023-03-02T14:23:54.863Z,21.10
2023-03-02T14:26:31.008Z,14.60
2023-03-02T14:29:18.803Z,18.07
2023-03-02T14:31:45.528Z,13.27
2023-03-02T14:34:16.637Z,23.20
2023-03-02T14:36:46.884Z,17.63
2023-03-02T14:39:40.534Z,15.50
2023-03-02T14:42:16.248Z,16.00
2023-03-02T14:44:45.127Z,13.90
2023-03-02T14:47:12.331Z,21.03
2023-03-02T14:49:39.821Z,19.73
2023-03-02T14:52:24.658Z,18.87
2023-03-02T14:54:55.351Z,14.57
2023-03-02T14:57:25.425Z,14.50
2023-03-02T14:59:53.005Z,19.20
2023-03-02T15:02:25.678Z,13.97
2023-03-02T15:04:57.938Z,12.00
2023-03-02T15:07:27.270Z,19.17
2023-03-02T15:09:58.061Z,13.83
2023-03-02T15:12:25.593Z,12.27
2023-03-02T15:14:52.430Z,15.37
2023-03-02T15:17:19.857Z,16.17
2023-03-02T15:19:47.124Z,15.13
2023-03-02T15:22:14.199Z,19.43
2023-03-02T15:24:41.139Z,21.43
2023-03-02T15:27:08.230Z,16.67
2023-03-02T15:29:35.101Z,18.70
2023-03-02T15:32:01.992Z,22.23
2023-03-02T15:34:28.873Z,14.53
2023-03-02T15:36:55.601Z,19.83
2023-03-02T15:39:22.351Z,16.50
2023-03-02T15:41:49.067Z,19.00
2023-03-02T15:44:22.186Z,16.83
2023-03-02T15:46:53.582Z,19.97
2023-03-02T15:49:22.968Z,22.17
2023-03-02T15:51:52.872Z,19.13
2023-03-02T15:54:20.028Z,14.87
2023-03-02T15:56:52.024Z,17.27
2023-03-02T15:59:20.456Z,20.30
2023-03-02T16:01:47.312Z,17.83
2023-03-02T16:04:14.119Z,19.10
2023-03-02T16:06:40.971Z,18.50
2023-03-02T16:09:07.977Z,21.93
2023-03-02T16:11:35.004Z,19.60
2023-03-02T16:14:01.911Z,20.50
2023-03-02T16:16:28.929Z,18.00
2023-03-02T16:18:57.663Z,19.10
2023-03-02T16:21:25.884Z,16.83
2023-03-02T16:23:53.402Z,16.30
2023-03-02T16:26:21.442Z,16.90
2023-03-02T16:28:48.282Z,17.03
2023-03-02T16:31:18.232Z,20.07
2023-03-02T16:33:46.358Z,16.00
2023-03-02T16:36:14.575Z,16.30
2023-03-02T16:38:41.498Z,45.47
2023-03-02T16:41:23.147Z,64.53
2023-03-02T16:43:55.147Z,70.20
2023-03-02T16:46:24.402Z,47.33
2023-03-02T16:48:52.187Z,34.47
2023-03-02T16:51:19.984Z,22.47
2023-03-02T16:53:47.377Z,17.87
2023-03-02T16:56:15.020Z,17.33
2023-03-02T16:58:42.570Z,12.43
2023-03-02T17:01:15.119Z,12.50
2023-03-02T17:03:42.637Z,13.57
2023-03-02T17:06:11.662Z,17.80
2023-03-02T17:08:38.936Z,15.90
2023-03-02T17:11:06.322Z,29.23
2023-03-02T17:13:33.832Z,27.63
2023-03-02T17:16:01.023Z,20.00
2023-03-02T17:18:28.075Z,14.40
2023-03-02T17:20:56.730Z,12.10
2023-03-02T17:23:23.905Z,16.53
2023-03-02T17:25:50.714Z,24.47
2023-03-02T17:28:17.562Z,18.53
2023-03-02T17:30:44.871Z,15.37
2023-03-02T17:33:11.620Z,15.07
2023-03-02T17:35:38.610Z,14.83
2023-03-02T17:38:05.856Z,13.23
2023-03-02T17:40:33.110Z,16.47
2023-03-02T17:42:59.933Z,16.77
2023-03-02T17:45:28.181Z,13.90
2023-03-02T17:47:57.104Z,18.83
2023-03-02T17:50:24.573Z,11.80
2023-03-02T17:52:51.442Z,13.43
2023-03-02T17:55:18.451Z,16.40
2023-03-02T17:57:45.143Z,18.97
2023-03-02T18:00:17.314Z,17.57
2023-03-02T18:02:44.175Z,25.87
2023-03-02T18:05:11.893Z,31.37
2023-03-02T18:07:38.770Z,20.23
2023-03-02T18:10:06.385Z,28.73
2023-03-02T18:12:33.834Z,32.93
2023-03-02T18:15:00.606Z,33.93
2023-03-02T18:17:27.494Z,34.53
2023-03-02T18:19:54.292Z,29.27
2023-03-02T18:22:22.054Z,25.53
2023-03-02T18:24:50.551Z,27.27
2023-03-02T18:27:17.660Z,21.73
2023-03-02T18:29:44.436Z,16.30
2023-03-02T18:32:12.175Z,15.13
2023-03-02T18:34:39.071Z,15.97
2023-03-02T18:37:06.100Z,16.43
2023-03-02T18:39:33.118Z,18.93
2023-03-02T18:42:00.122Z,22.13
2023-03-02T18:44:28.308Z,18.57
2023-03-02T18:46:55.838Z,18.20
2023-03-02T18:49:23.441Z,13.60
2023-03-02T18:51:50.397Z,10.77
2023-03-02T18:54:17.132Z,11.27
2023-03-02T18:56:44.025Z,14.20
2023-03-02T18:59:11.525Z,14.43
2023-03-02T19:01:38.354Z,28.77
2023-03-02T19:04:06.406Z,26.73
2023-03-02T19:06:34.254Z,22.77
2023-03-02T19:09:10.773Z,25.73
2023-03-02T19:11:37.538Z,27.47
2023-03-02T19:14:04.307Z,26.60
2023-03-02T19:16:31.227Z,28.30
2023-03-02T19:18:57.993Z,15.67
2023-03-02T19:21:24.728Z,25.17
2023-03-02T19:23:51.736Z,17.27
2023-03-02T19:26:18.630Z,18.90
2023-03-02T19:28:45.835Z,12.10
2023-03-02T19:31:13.631Z,18.87
2023-03-02T19:33:41.186Z,14.10
2023-03-02T19:36:08.934Z,14.70
2023-03-02T19:38:37.888Z,17.30
2023-03-02T19:41:04.958Z,16.40
2023-03-02T19:43:31.847Z,15.23
2023-03-02T19:45:58.645Z,11.27
2023-03-02T19:48:25.578Z,21.00
2023-03-02T19:50:53.053Z,18.87
2023-03-02T19:53:19.822Z,15.13
2023-03-02T19:55:46.598Z,16.17
2023-03-02T19:58:17.485Z,16.37
2023-03-02T20:00:45.333Z,15.50
2023-03-02T20:03:12.991Z,18.93
2023-03-02T20:05:40.098Z,27.93
2023-03-02T20:08:07.969Z,32.53
2023-03-02T20:10:40.851Z,28.90
2023-03-02T20:13:08.867Z,33.70
2023-03-02T20:15:39.419Z,29.13
2023-03-02T20:18:11.469Z,25.60
2023-03-02T20:20:38.310Z,28.07
2023-03-02T20:23:05.028Z,32.83
2023-03-02T20:25:31.851Z,25.83
2023-03-02T20:27:58.852Z,30.40
2023-03-02T20:30:36.884Z,33.00
2023-03-02T20:33:06.627Z,31.70
2023-03-02T20:35:39.882Z,24.57
2023-03-02T20:38:11.011Z,27.17
2023-03-02T20:40:37.827Z,26.20
2023-03-02T20:43:05.289Z,27.98
2023-03-02T20:45:32.328Z,20.73
2023-03-02T20:47:59.402Z,28.60
2023-03-02T20:50:29.809Z,24.33
2023-03-02T20:52:57.234Z,22.85
2023-03-02T20:55:24.437Z,25.48
2023-03-02T20:57:51.152Z,22.90
2023-03-02T21:00:21.449Z,20.80
2023-03-02T21:02:49.305Z,38.45
2023-03-02T21:05:18.045Z,22.40
2023-03-02T21:07:45.489Z,29.98
2023-03-02T21:10:16.536Z,24.13
2023-03-02T21:12:43.585Z,26.42
2023-03-02T21:15:10.905Z,23.15
2023-03-02T21:17:38.060Z,26.05
2023-03-02T21:20:06.385Z,22.27
2023-03-02T21:22:33.439Z,26.67
2023-03-02T21:25:00.242Z,23.98
2023-03-02T21:27:26.940Z,28.02
2023-03-02T21:29:53.727Z,23.85
2023-03-02T21:32:20.584Z,26.35
2023-03-02T21:34:47.353Z,34.65
2023-03-02T21:37:14.104Z,32.35
2023-03-02T21:39:40.880Z,31.35
2023-03-02T21:42:07.592Z,28.48
2023-03-02T21:44:34.320Z,26.10
2023-03-02T21:47:01.104Z,27.75
2023-03-02T21:49:28.333Z,22.70
2023-03-02T21:51:55.073Z,30.98
2023-03-02T21:54:21.763Z,29.00
2023-03-02T21:56:48.517Z,26.77
2023-03-02T21:59:15.383Z,24.70
2023-03-02T22:01:42.274Z,25.70
2023-03-02T22:04:09.173Z,25.33
2023-03-02T22:06:36.046Z,23.48
2023-03-02T22:09:03.603Z,25.02
2023-03-02T22:11:35.770Z,34.67
2023-03-02T22:14:14.568Z,26.45
2023-03-02T22:16:45.112Z,27.13
2023-03-02T22:19:25.811Z,24.02
2023-03-02T22:21:56.992Z,24.20
2023-03-02T22:24:29.596Z,28.58
2023-03-02T22:27:20.900Z,29.10
2023-03-02T22:29:48.732Z,22.30
2023-03-02T22:32:20.277Z,26.55
2023-03-02T22:34:48.888Z,25.80
2023-03-02T22:37:18.127Z,38.78
2023-03-02T22:39:45.409Z,29.88
2023-03-02T22:42:18.353Z,30.80
2023-03-02T22:44:59.249Z,33.60
2023-03-02T22:47:27.037Z,26.58
2023-03-02T22:50:00.245Z,35.20
2023-03-02T22:52:36.135Z,26.95
2023-03-02T22:55:42.425Z,29.10
2023-03-02T22:58:29.743Z,36.47
2023-03-02T23:01:01.171Z,29.13
2023-03-02T23:03:39.845Z,28.13
2023-03-02T23:06:32.044Z,34.08
2023-03-02T23:09:04.624Z,36.03
2023-03-02T23:11:40.886Z,35.10
2023-03-02T23:14:37.719Z,30.17
2023-03-02T23:17:38.816Z,30.55
2023-03-02T23:20:10.622Z,34.85
2023-03-02T23:22:38.959Z,34.50
2023-03-02T23:25:07.302Z,39.58
2023-03-02T23:27:35.173Z,34.22
2023-03-02T23:30:02.865Z,38.13
2023-03-02T23:32:29.625Z,31.45
2023-03-02T23:34:56.490Z,47.75
2023-03-02T23:37:23.183Z,35.65
2023-03-02T23:39:49.939Z,39.63
2023-03-02T23:42:16.658Z,41.20
2023-03-02T23:44:43.405Z,41.72
2023-03-02T23:47:10.161Z,39.20
2023-03-02T23:49:36.921Z,40.55
2023-03-02T23:52:03.776Z,45.35
2023-03-02T23:54:30.522Z,45.85
2023-03-02T23:56:57.197Z,35.83
2023-03-02T23:59:24.074Z,36.83
